sensor_id;sensor_type;location;lat;lon;timestamp;pressure;altitude;pressure_sealevel;temperature;humidity
8941;BME280;4505;43.406;23.226;2022-11-11T00:00:59;101056.00;;;10.00;100.00
8941;BME280;4505;43.406;23.226;2022-11-11T00:03:26;101055.00;;;10.01;100.00
8941;BME280;4505;43.406;23.226;2022-11-11T00:05:52;101068.22;;;9.94;100.00
8941;BME280;4505;43.406;23.226;2022-11-11T00:08:21;101060.84;;;9.90;100.00
8941;BME280;4505;43.406;23.226;2022-11-11T00:10:48;101062.38;;;9.71;100.00
8941;BME280;4505;43.406;23.226;2022-11-11T00:13:14;101048.34;;;9.77;100.00
8941;BME280;4505;43.406;23.226;2022-11-11T00:15:41;101057.13;;;9.84;100.00
8941;BME280;4505;43.406;23.226;2022-11-11T00:18:08;101053.41;;;9.72;100.00
8941;BME280;4505;43.406;23.226;2022-11-11T00:20:53;101049.75;;;9.80;100.00
8941;BME280;4505;43.406;23.226;2022-11-11T00:23:38;101048.53;;;9.76;100.00
8941;BME280;4505;43.406;23.226;2022-11-11T00:26:23;101047.31;;;9.78;100.00
8941;BME280;4505;43.406;23.226;2022-11-11T00:28:51;101045.81;;;9.63;100.00
8941;BME280;4505;43.406;23.226;2022-11-11T00:31:18;101034.34;;;9.62;100.00
8941;BME280;4505;43.406;23.226;2022-11-11T00:33:45;101035.38;;;9.61;100.00
8941;BME280;4505;43.406;23.226;2022-11-11T00:36:11;101034.84;;;9.72;100.00
8941;BME280;4505;43.406;23.226;2022-11-11T00:38:39;101039.38;;;9.51;100.00
8941;BME280;4505;43.406;23.226;2022-11-11T00:41:13;101032.44;;;9.50;100.00
8941;BME280;4505;43.406;23.226;2022-11-11T00:43:40;101032.84;;;9.47;100.00
8941;BME280;4505;43.406;23.226;2022-11-11T00:46:19;101032.59;;;9.42;100.00
8941;BME280;4505;43.406;23.226;2022-11-11T00:49:03;101041.63;;;9.47;100.00
8941;BME280;4505;43.406;23.226;2022-11-11T00:51:47;101039.81;;;9.54;100.00
8941;BME280;4505;43.406;23.226;2022-11-11T00:54:15;101032.72;;;9.61;100.00
8941;BME280;4505;43.406;23.226;2022-11-11T00:56:41;101035.03;;;9.71;100.00
8941;BME280;4505;43.406;23.226;2022-11-11T00:59:08;101027.19;;;9.56;100.00
8941;BME280;4505;43.406;23.226;2022-11-11T01:01:35;101022.03;;;9.48;100.00
8941;BME280;4505;43.406;23.226;2022-11-11T01:04:02;101016.88;;;9.40;100.00
8941;BME280;4505;43.406;23.226;2022-11-11T01:06:29;101030.38;;;9.45;100.00
8941;BME280;4505;43.406;23.226;2022-11-11T01:08:56;101027.69;;;9.39;100.00
8941;BME280;4505;43.406;23.226;2022-11-11T01:11:24;101028.91;;;9.43;100.00
8941;BME280;4505;43.406;23.226;2022-11-11T01:13:50;101028.56;;;9.52;100.00
8941;BME280;4505;43.406;23.226;2022-11-11T01:16:18;101018.94;;;9.45;100.00
8941;BME280;4505;43.406;23.226;2022-11-11T01:18:46;101022.63;;;9.44;100.00
8941;BME280;4505;43.406;23.226;2022-11-11T01:21:13;101026.94;;;9.51;100.00
8941;BME280;4505;43.406;23.226;2022-11-11T01:23:41;101024.34;;;9.58;100.00
8941;BME280;4505;43.406;23.226;2022-11-11T01:26:08;101026.50;;;9.20;100.00
8941;BME280;4505;43.406;23.226;2022-11-11T01:28:38;101035.53;;;9.26;100.00
8941;BME280;4505;43.406;23.226;2022-11-11T01:31:06;101023.75;;;9.35;100.00
8941;BME280;4505;43.406;23.226;2022-11-11T01:33:33;101023.66;;;9.15;100.00
8941;BME280;4505;43.406;23.226;2022-11-11T01:36:04;101030.72;;;8.87;100.00
8941;BME280;4505;43.406;23.226;2022-11-11T01:38:37;101029.03;;;8.80;100.00
8941;BME280;4505;43.406;23.226;2022-11-11T01:41:04;101025.41;;;8.66;100.00
8941;BME280;4505;43.406;23.226;2022-11-11T01:43:46;101020.31;;;8.86;100.00
8941;BME280;4505;43.406;23.226;2022-11-11T01:46:16;101016.13;;;8.98;100.00
8941;BME280;4505;43.406;23.226;2022-11-11T01:48:47;101015.59;;;9.02;100.00
8941;BME280;4505;43.406;23.226;2022-11-11T01:51:33;101018.56;;;9.20;100.00
8941;BME280;4505;43.406;23.226;2022-11-11T01:54:02;101014.31;;;8.98;100.00
8941;BME280;4505;43.406;23.226;2022-11-11T01:56:30;101025.44;;;9.36;100.00
8941;BME280;4505;43.406;23.226;2022-11-11T01:58:59;101023.13;;;9.60;100.00
8941;BME280;4505;43.406;23.226;2022-11-11T02:01:27;101035.91;;;9.23;100.00
8941;BME280;4505;43.406;23.226;2022-11-11T02:03:54;101033.75;;;9.05;100.00
8941;BME280;4505;43.406;23.226;2022-11-11T02:06:40;101039.69;;;9.14;100.00
8941;BME280;4505;43.406;23.226;2022-11-11T02:09:06;101034.88;;;8.96;100.00
8941;BME280;4505;43.406;23.226;2022-11-11T02:11:34;101030.66;;;9.02;100.00
8941;BME280;4505;43.406;23.226;2022-11-11T02:14:20;101034.91;;;9.03;100.00
8941;BME280;4505;43.406;23.226;2022-11-11T02:17:04;101034.97;;;9.09;100.00
8941;BME280;4505;43.406;23.226;2022-11-11T02:19:34;101039.25;;;8.83;100.00
8941;BME280;4505;43.406;23.226;2022-11-11T02:22:07;101046.69;;;8.94;100.00
8941;BME280;4505;43.406;23.226;2022-11-11T02:24:37;101039.22;;;9.25;100.00
8941;BME280;4505;43.406;23.226;2022-11-11T02:27:04;101020.50;;;9.33;100.00
8941;BME280;4505;43.406;23.226;2022-11-11T02:29:33;101026.13;;;9.51;100.00
8941;BME280;4505;43.406;23.226;2022-11-11T02:32:02;101025.13;;;9.24;100.00
8941;BME280;4505;43.406;23.226;2022-11-11T02:34:29;101015.75;;;9.56;100.00
8941;BME280;4505;43.406;23.226;2022-11-11T02:36:56;101019.66;;;9.60;100.00
8941;BME280;4505;43.406;23.226;2022-11-11T02:39:25;101018.75;;;9.80;100.00
8941;BME280;4505;43.406;23.226;2022-11-11T02:41:53;101016.63;;;10.03;100.00
8941;BME280;4505;43.406;23.226;2022-11-11T02:44:23;101018.25;;;9.98;100.00
8941;BME280;4505;43.406;23.226;2022-11-11T02:46:59;101025.84;;;10.07;100.00
8941;BME280;4505;43.406;23.226;2022-11-11T02:49:26;101019.31;;;10.10;100.00
8941;BME280;4505;43.406;23.226;2022-11-11T02:51:52;101023.66;;;10.18;100.00
8941;BME280;4505;43.406;23.226;2022-11-11T02:54:19;101023.78;;;10.03;100.00
8941;BME280;4505;43.406;23.226;2022-11-11T02:56:45;101025.75;;;10.29;100.00
8941;BME280;4505;43.406;23.226;2022-11-11T02:59:31;101020.84;;;10.26;100.00
8941;BME280;4505;43.406;23.226;2022-11-11T03:02:09;101027.13;;;10.25;100.00
8941;BME280;4505;43.406;23.226;2022-11-11T03:04:36;101022.31;;;10.41;100.00
8941;BME280;4505;43.406;23.226;2022-11-11T03:07:06;101020.47;;;10.42;100.00
8941;BME280;4505;43.406;23.226;2022-11-11T03:09:33;101032.31;;;10.46;100.00
8941;BME280;4505;43.406;23.226;2022-11-11T03:11:59;101032.56;;;10.57;100.00
8941;BME280;4505;43.406;23.226;2022-11-11T03:14:26;101036.66;;;10.66;100.00
8941;BME280;4505;43.406;23.226;2022-11-11T03:17:08;101036.47;;;10.81;100.00
8941;BME280;4505;43.406;23.226;2022-11-11T03:19:52;101052.41;;;10.81;100.00
8941;BME280;4505;43.406;23.226;2022-11-11T03:22:39;101041.34;;;10.58;100.00
8941;BME280;4505;43.406;23.226;2022-11-11T03:25:05;101045.28;;;10.81;100.00
8941;BME280;4505;43.406;23.226;2022-11-11T03:27:49;101055.94;;;11.01;100.00
8941;BME280;4505;43.406;23.226;2022-11-11T03:30:16;101050.94;;;10.59;100.00
8941;BME280;4505;43.406;23.226;2022-11-11T03:32:44;101061.25;;;10.21;100.00
8941;BME280;4505;43.406;23.226;2022-11-11T03:35:10;101052.88;;;10.18;100.00
8941;BME280;4505;43.406;23.226;2022-11-11T03:37:37;101053.66;;;9.77;100.00
8941;BME280;4505;43.406;23.226;2022-11-11T03:40:21;101051.88;;;9.91;100.00
8941;BME280;4505;43.406;23.226;2022-11-11T03:42:48;101050.41;;;9.54;100.00
8941;BME280;4505;43.406;23.226;2022-11-11T03:45:15;101059.66;;;9.58;100.00
8941;BME280;4505;43.406;23.226;2022-11-11T03:47:41;101060.06;;;9.96;100.00
8941;BME280;4505;43.406;23.226;2022-11-11T03:50:09;101056.06;;;9.72;100.00
8941;BME280;4505;43.406;23.226;2022-11-11T03:52:39;101046.91;;;9.81;100.00
8941;BME280;4505;43.406;23.226;2022-11-11T03:55:06;101058.56;;;9.53;100.00
8941;BME280;4505;43.406;23.226;2022-11-11T03:57:33;101068.06;;;9.68;100.00
8941;BME280;4505;43.406;23.226;2022-11-11T04:00:00;101067.00;;;9.90;100.00
8941;BME280;4505;43.406;23.226;2022-11-11T04:02:26;101069.75;;;9.76;100.00
8941;BME280;4505;43.406;23.226;2022-11-11T04:05:12;101057.41;;;9.62;100.00
8941;BME280;4505;43.406;23.226;2022-11-11T04:07:55;101072.84;;;9.24;100.00
8941;BME280;4505;43.406;23.226;2022-11-11T04:10:39;101070.97;;;9.18;100.00
8941;BME280;4505;43.406;23.226;2022-11-11T04:13:06;101076.66;;;9.15;100.00
8941;BME280;4505;43.406;23.226;2022-11-11T04:15:50;101078.44;;;9.36;100.00
8941;BME280;4505;43.406;23.226;2022-11-11T04:18:32;101092.09;;;9.33;100.00
8941;BME280;4505;43.406;23.226;2022-11-11T04:21:17;101081.69;;;9.38;100.00
8941;BME280;4505;43.406;23.226;2022-11-11T04:24:02;101087.44;;;9.41;100.00
8941;BME280;4505;43.406;23.226;2022-11-11T04:26:48;101099.88;;;9.68;100.00
8941;BME280;4505;43.406;23.226;2022-11-11T04:29:14;101096.31;;;9.82;100.00
8941;BME280;4505;43.406;23.226;2022-11-11T04:31:58;101098.72;;;9.50;100.00
8941;BME280;4505;43.406;23.226;2022-11-11T04:34:43;101102.19;;;9.71;100.00
8941;BME280;4505;43.406;23.226;2022-11-11T04:37:12;101105.53;;;9.59;100.00
8941;BME280;4505;43.406;23.226;2022-11-11T04:39:39;101096.72;;;9.79;100.00
8941;BME280;4505;43.406;23.226;2022-11-11T04:42:23;101111.81;;;9.79;100.00
8941;BME280;4505;43.406;23.226;2022-11-11T04:44:50;101105.75;;;9.91;100.00
8941;BME280;4505;43.406;23.226;2022-11-11T04:47:34;101105.38;;;9.94;100.00
8941;BME280;4505;43.406;23.226;2022-11-11T04:50:01;101116.03;;;9.46;100.00
8941;BME280;4505;43.406;23.226;2022-11-11T04:52:42;101125.91;;;9.31;100.00
8941;BME280;4505;43.406;23.226;2022-11-11T04:55:09;101126.81;;;9.17;100.00
8941;BME280;4505;43.406;23.226;2022-11-11T04:57:53;101132.78;;;9.25;100.00
8941;BME280;4505;43.406;23.226;2022-11-11T05:00:19;101133.88;;;9.31;100.00
8941;BME280;4505;43.406;23.226;2022-11-11T05:02:46;101136.97;;;9.62;100.00
8941;BME280;4505;43.406;23.226;2022-11-11T05:05:30;101148.75;;;9.80;100.00
8941;BME280;4505;43.406;23.226;2022-11-11T05:08:20;101151.56;;;10.00;100.00
8941;BME280;4505;43.406;23.226;2022-11-11T05:11:00;101150.91;;;9.98;100.00
8941;BME280;4505;43.406;23.226;2022-11-11T05:13:27;101151.88;;;10.12;100.00
8941;BME280;4505;43.406;23.226;2022-11-11T05:16:12;101154.78;;;9.68;100.00
8941;BME280;4505;43.406;23.226;2022-11-11T05:18:57;101175.38;;;9.66;100.00
8941;BME280;4505;43.406;23.226;2022-11-11T05:21:41;101165.97;;;9.63;100.00
8941;BME280;4505;43.406;23.226;2022-11-11T05:24:09;101174.78;;;9.70;100.00
8941;BME280;4505;43.406;23.226;2022-11-11T05:26:53;101174.41;;;9.73;100.00
8941;BME280;4505;43.406;23.226;2022-11-11T05:29:20;101179.44;;;9.89;100.00
8941;BME280;4505;43.406;23.226;2022-11-11T05:31:46;101181.19;;;10.03;100.00
8941;BME280;4505;43.406;23.226;2022-11-11T05:34:15;101183.16;;;9.95;100.00
8941;BME280;4505;43.406;23.226;2022-11-11T05:36:41;101186.91;;;10.07;100.00
8941;BME280;4505;43.406;23.226;2022-11-11T05:39:09;101192.13;;;10.22;100.00
8941;BME280;4505;43.406;23.226;2022-11-11T05:41:36;101194.44;;;10.03;100.00
8941;BME280;4505;43.406;23.226;2022-11-11T05:44:02;101203.25;;;9.83;100.00
8941;BME280;4505;43.406;23.226;2022-11-11T05:46:29;101201.50;;;9.69;100.00
8941;BME280;4505;43.406;23.226;2022-11-11T05:48:55;101205.66;;;9.78;100.00
8941;BME280;4505;43.406;23.226;2022-11-11T05:51:40;101211.91;;;9.70;100.00
8941;BME280;4505;43.406;23.226;2022-11-11T05:54:07;101212.31;;;9.67;100.00
8941;BME280;4505;43.406;23.226;2022-11-11T05:56:35;101221.84;;;9.62;100.00
8941;BME280;4505;43.406;23.226;2022-11-11T05:59:01;101225.31;;;9.62;100.00
8941;BME280;4505;43.406;23.226;2022-11-11T06:01:28;101228.03;;;9.69;100.00
8941;BME280;4505;43.406;23.226;2022-11-11T06:03:55;101224.06;;;9.79;100.00
8941;BME280;4505;43.406;23.226;2022-11-11T06:06:22;101225.88;;;9.79;100.00
8941;BME280;4505;43.406;23.226;2022-11-11T06:08:48;101229.38;;;9.79;100.00
8941;BME280;4505;43.406;23.226;2022-11-11T06:11:15;101233.31;;;9.90;100.00
8941;BME280;4505;43.406;23.226;2022-11-11T06:13:43;101236.41;;;9.93;100.00
8941;BME280;4505;43.406;23.226;2022-11-11T06:16:10;101240.84;;;10.07;100.00
8941;BME280;4505;43.406;23.226;2022-11-11T06:18:36;101237.47;;;10.20;100.00
8941;BME280;4505;43.406;23.226;2022-11-11T06:21:03;101234.69;;;10.35;100.00
8941;BME280;4505;43.406;23.226;2022-11-11T06:23:30;101232.72;;;10.43;100.00
8941;BME280;4505;43.406;23.226;2022-11-11T06:25:57;101248.38;;;10.66;100.00
8941;BME280;4505;43.406;23.226;2022-11-11T06:28:38;101254.34;;;10.74;100.00
8941;BME280;4505;43.406;23.226;2022-11-11T06:31:06;101252.56;;;11.35;100.00
8941;BME280;4505;43.406;23.226;2022-11-11T06:33:33;101266.44;;;11.30;100.00
8941;BME280;4505;43.406;23.226;2022-11-11T06:36:00;101257.56;;;11.64;100.00
8941;BME280;4505;43.406;23.226;2022-11-11T06:38:27;101261.66;;;11.67;100.00
8941;BME280;4505;43.406;23.226;2022-11-11T06:40:53;101272.53;;;12.24;100.00
8941;BME280;4505;43.406;23.226;2022-11-11T06:43:20;101279.72;;;12.30;100.00
8941;BME280;4505;43.406;23.226;2022-11-11T06:45:48;101276.41;;;11.76;100.00
8941;BME280;4505;43.406;23.226;2022-11-11T06:48:16;101284.41;;;11.82;100.00
8941;BME280;4505;43.406;23.226;2022-11-11T06:50:43;101283.78;;;11.93;100.00
8941;BME280;4505;43.406;23.226;2022-11-11T06:53:11;101286.88;;;12.03;100.00
8941;BME280;4505;43.406;23.226;2022-11-11T06:55:37;101292.41;;;12.21;100.00
8941;BME280;4505;43.406;23.226;2022-11-11T06:58:04;101290.06;;;12.83;100.00
8941;BME280;4505;43.406;23.226;2022-11-11T07:00:31;101298.47;;;12.80;100.00
8941;BME280;4505;43.406;23.226;2022-11-11T07:02:58;101303.59;;;13.02;100.00
8941;BME280;4505;43.406;23.226;2022-11-11T07:05:26;101296.94;;;13.17;100.00
8941;BME280;4505;43.406;23.226;2022-11-11T07:07:52;101311.78;;;13.07;100.00
8941;BME280;4505;43.406;23.226;2022-11-11T07:10:19;101305.03;;;13.48;100.00
8941;BME280;4505;43.406;23.226;2022-11-11T07:12:46;101313.50;;;13.39;100.00
8941;BME280;4505;43.406;23.226;2022-11-11T07:15:12;101309.56;;;13.41;100.00
8941;BME280;4505;43.406;23.226;2022-11-11T07:17:40;101310.66;;;13.27;100.00
8941;BME280;4505;43.406;23.226;2022-11-11T07:20:07;101317.56;;;13.41;100.00
8941;BME280;4505;43.406;23.226;2022-11-11T07:22:35;101312.81;;;13.50;100.00
8941;BME280;4505;43.406;23.226;2022-11-11T07:25:02;101319.69;;;13.33;100.00
8941;BME280;4505;43.406;23.226;2022-11-11T07:27:42;101321.72;;;13.37;100.00
8941;BME280;4505;43.406;23.226;2022-11-11T07:30:09;101328.47;;;13.40;100.00
8941;BME280;4505;43.406;23.226;2022-11-11T07:32:36;101337.75;;;13.31;100.00
8941;BME280;4505;43.406;23.226;2022-11-11T07:35:03;101331.81;;;13.22;100.00
8941;BME280;4505;43.406;23.226;2022-11-11T07:37:30;101337.69;;;13.44;100.00
8941;BME280;4505;43.406;23.226;2022-11-11T07:39:58;101333.38;;;13.43;100.00
8941;BME280;4505;43.406;23.226;2022-11-11T07:42:26;101327.72;;;13.64;100.00
8941;BME280;4505;43.406;23.226;2022-11-11T07:44:53;101326.63;;;13.78;100.00
8941;BME280;4505;43.406;23.226;2022-11-11T07:47:20;101319.44;;;13.78;100.00
8941;BME280;4505;43.406;23.226;2022-11-11T07:50:01;101328.00;;;13.49;100.00
8941;BME280;4505;43.406;23.226;2022-11-11T07:52:28;101323.03;;;13.97;100.00
8941;BME280;4505;43.406;23.226;2022-11-11T07:55:10;101336.53;;;13.71;100.00
8941;BME280;4505;43.406;23.226;2022-11-11T07:57:37;101330.50;;;14.13;100.00
8941;BME280;4505;43.406;23.226;2022-11-11T08:00:04;101325.34;;;13.87;100.00
8941;BME280;4505;43.406;23.226;2022-11-11T08:02:31;101320.13;;;14.23;100.00
8941;BME280;4505;43.406;23.226;2022-11-11T08:04:57;101319.69;;;14.01;100.00
8941;BME280;4505;43.406;23.226;2022-11-11T08:07:34;101315.84;;;13.91;100.00
8941;BME280;4505;43.406;23.226;2022-11-11T08:13:27;101316.94;;;14.14;100.00
8941;BME280;4505;43.406;23.226;2022-11-11T08:16:06;101321.75;;;14.55;100.00
8941;BME280;4505;43.406;23.226;2022-11-11T08:18:33;101322.22;;;14.70;100.00
8941;BME280;4505;43.406;23.226;2022-11-11T08:21:00;101320.06;;;14.61;100.00
8941;BME280;4505;43.406;23.226;2022-11-11T08:23:27;101327.41;;;14.41;100.00
8941;BME280;4505;43.406;23.226;2022-11-11T08:25:58;101331.53;;;14.43;100.00
8941;BME280;4505;43.406;23.226;2022-11-11T08:28:26;101333.44;;;14.61;100.00
8941;BME280;4505;43.406;23.226;2022-11-11T08:30:53;101322.03;;;14.90;100.00
8941;BME280;4505;43.406;23.226;2022-11-11T08:33:20;101323.41;;;14.56;100.00
8941;BME280;4505;43.406;23.226;2022-11-11T08:36:01;101326.16;;;14.86;100.00
8941;BME280;4505;43.406;23.226;2022-11-11T08:38:28;101334.84;;;14.81;100.00
8941;BME280;4505;43.406;23.226;2022-11-11T08:41:09;101331.41;;;14.56;100.00
8941;BME280;4505;43.406;23.226;2022-11-11T08:43:37;101338.50;;;14.44;100.00
8941;BME280;4505;43.406;23.226;2022-11-11T08:46:18;101340.34;;;14.44;100.00
8941;BME280;4505;43.406;23.226;2022-11-11T08:48:44;101345.91;;;14.42;100.00
8941;BME280;4505;43.406;23.226;2022-11-11T08:51:11;101349.56;;;14.48;100.00
8941;BME280;4505;43.406;23.226;2022-11-11T08:53:38;101345.91;;;14.67;100.00
8941;BME280;4505;43.406;23.226;2022-11-11T08:56:05;101350.97;;;14.75;100.00
8941;BME280;4505;43.406;23.226;2022-11-11T08:58:32;101350.31;;;14.79;100.00
8941;BME280;4505;43.406;23.226;2022-11-11T09:01:01;101346.91;;;14.90;100.00
8941;BME280;4505;43.406;23.226;2022-11-11T09:03:28;101354.34;;;14.88;100.00
8941;BME280;4505;43.406;23.226;2022-11-11T09:05:55;101355.31;;;14.94;100.00
8941;BME280;4505;43.406;23.226;2022-11-11T09:08:22;101348.22;;;14.81;100.00
8941;BME280;4505;43.406;23.226;2022-11-11T09:10:49;101353.25;;;14.71;100.00
8941;BME280;4505;43.406;23.226;2022-11-11T09:13:16;101345.00;;;14.73;100.00
8941;BME280;4505;43.406;23.226;2022-11-11T09:15:42;101341.09;;;14.75;100.00
8941;BME280;4505;43.406;23.226;2022-11-11T09:18:10;101349.19;;;14.69;100.00
8941;BME280;4505;43.406;23.226;2022-11-11T09:20:38;101346.63;;;14.56;100.00
8941;BME280;4505;43.406;23.226;2022-11-11T09:23:05;101346.59;;;14.98;100.00
8941;BME280;4505;43.406;23.226;2022-11-11T09:25:32;101362.81;;;14.85;100.00
8941;BME280;4505;43.406;23.226;2022-11-11T09:27:59;101344.31;;;15.20;100.00
8941;BME280;4505;43.406;23.226;2022-11-11T09:30:27;101345.50;;;15.60;100.00
8941;BME280;4505;43.406;23.226;2022-11-11T09:32:54;101346.66;;;14.92;100.00
8941;BME280;4505;43.406;23.226;2022-11-11T09:35:26;101345.88;;;14.91;100.00
8941;BME280;4505;43.406;23.226;2022-11-11T09:37:55;101344.88;;;14.86;100.00
8941;BME280;4505;43.406;23.226;2022-11-11T09:40:23;101345.78;;;14.80;100.00
8941;BME280;4505;43.406;23.226;2022-11-11T09:42:55;101339.75;;;14.84;100.00
8941;BME280;4505;43.406;23.226;2022-11-11T09:45:28;101339.09;;;14.71;100.00
8941;BME280;4505;43.406;23.226;2022-11-11T09:48:01;101327.78;;;14.69;100.00
8941;BME280;4505;43.406;23.226;2022-11-11T09:50:35;101329.19;;;14.71;100.00
8941;BME280;4505;43.406;23.226;2022-11-11T09:53:03;101319.47;;;14.77;100.00
8941;BME280;4505;43.406;23.226;2022-11-11T09:55:51;101322.00;;;14.72;100.00
8941;BME280;4505;43.406;23.226;2022-11-11T09:58:21;101318.13;;;14.86;100.00
8941;BME280;4505;43.406;23.226;2022-11-11T10:00:50;101326.25;;;14.97;100.00
8941;BME280;4505;43.406;23.226;2022-11-11T10:03:24;101317.19;;;14.98;100.00
8941;BME280;4505;43.406;23.226;2022-11-11T10:05:54;101311.31;;;14.90;100.00
8941;BME280;4505;43.406;23.226;2022-11-11T10:08:39;101312.81;;;15.04;100.00
8941;BME280;4505;43.406;23.226;2022-11-11T10:11:11;101303.19;;;15.14;100.00
8941;BME280;4505;43.406;23.226;2022-11-11T10:13:51;101304.94;;;15.27;100.00
8941;BME280;4505;43.406;23.226;2022-11-11T10:16:35;101295.84;;;15.46;100.00
8941;BME280;4505;43.406;23.226;2022-11-11T10:19:13;101295.06;;;15.09;100.00
8941;BME280;4505;43.406;23.226;2022-11-11T10:21:56;101296.81;;;14.97;100.00
8941;BME280;4505;43.406;23.226;2022-11-11T10:24:27;101306.25;;;15.00;100.00
8941;BME280;4505;43.406;23.226;2022-11-11T10:26:54;101304.31;;;15.07;100.00
8941;BME280;4505;43.406;23.226;2022-11-11T10:29:24;101299.19;;;15.05;100.00
8941;BME280;4505;43.406;23.226;2022-11-11T10:31:54;101294.84;;;15.11;100.00
8941;BME280;4505;43.406;23.226;2022-11-11T10:34:23;101303.19;;;15.32;100.00
8941;BME280;4505;43.406;23.226;2022-11-11T10:36:53;101300.88;;;15.36;100.00
8941;BME280;4505;43.406;23.226;2022-11-11T10:39:23;101302.06;;;15.58;100.00
8941;BME280;4505;43.406;23.226;2022-11-11T10:41:51;101294.56;;;15.48;100.00
8941;BME280;4505;43.406;23.226;2022-11-11T10:44:20;101315.63;;;15.45;100.00
8941;BME280;4505;43.406;23.226;2022-11-11T10:46:50;101298.97;;;15.25;100.00
8941;BME280;4505;43.406;23.226;2022-11-11T10:49:21;101289.06;;;15.43;100.00
8941;BME280;4505;43.406;23.226;2022-11-11T10:51:52;101296.78;;;15.81;100.00
8941;BME280;4505;43.406;23.226;2022-11-11T10:54:24;101297.47;;;15.29;100.00
8941;BME280;4505;43.406;23.226;2022-11-11T10:56:53;101305.31;;;15.12;100.00
8941;BME280;4505;43.406;23.226;2022-11-11T10:59:23;101306.03;;;14.83;100.00
8941;BME280;4505;43.406;23.226;2022-11-11T11:01:53;101304.19;;;14.41;100.00
8941;BME280;4505;43.406;23.226;2022-11-11T11:04:23;101303.56;;;14.14;100.00
8941;BME280;4505;43.406;23.226;2022-11-11T11:06:52;101291.91;;;14.09;100.00
8941;BME280;4505;43.406;23.226;2022-11-11T11:09:20;101294.41;;;14.04;100.00
8941;BME280;4505;43.406;23.226;2022-11-11T11:11:51;101293.03;;;13.95;100.00
8941;BME280;4505;43.406;23.226;2022-11-11T11:14:19;101296.13;;;13.92;100.00
8941;BME280;4505;43.406;23.226;2022-11-11T11:16:49;101294.00;;;13.76;100.00
8941;BME280;4505;43.406;23.226;2022-11-11T11:19:20;101285.75;;;13.77;100.00
8941;BME280;4505;43.406;23.226;2022-11-11T11:21:51;101290.72;;;13.74;100.00
8941;BME280;4505;43.406;23.226;2022-11-11T11:24:19;101283.41;;;13.87;100.00
8941;BME280;4505;43.406;23.226;2022-11-11T11:26:46;101287.09;;;13.93;100.00
8941;BME280;4505;43.406;23.226;2022-11-11T11:29:17;101286.81;;;14.01;100.00
8941;BME280;4505;43.406;23.226;2022-11-11T11:31:49;101275.25;;;14.07;100.00
8941;BME280;4505;43.406;23.226;2022-11-11T11:34:18;101285.56;;;14.03;100.00
8941;BME280;4505;43.406;23.226;2022-11-11T11:36:52;101285.38;;;14.05;100.00
8941;BME280;4505;43.406;23.226;2022-11-11T11:39:33;101276.03;;;14.14;100.00
8941;BME280;4505;43.406;23.226;2022-11-11T11:42:00;101278.88;;;14.19;100.00
8941;BME280;4505;43.406;23.226;2022-11-11T11:44:30;101272.47;;;14.20;100.00
8941;BME280;4505;43.406;23.226;2022-11-11T11:47:05;101276.19;;;14.44;100.00
8941;BME280;4505;43.406;23.226;2022-11-11T11:49:42;101275.19;;;14.45;100.00
8941;BME280;4505;43.406;23.226;2022-11-11T11:52:15;101269.94;;;14.56;100.00
8941;BME280;4505;43.406;23.226;2022-11-11T11:54:48;101264.28;;;14.82;100.00
8941;BME280;4505;43.406;23.226;2022-11-11T11:57:19;101270.81;;;15.04;100.00
8941;BME280;4505;43.406;23.226;2022-11-11T11:59:57;101268.38;;;15.50;100.00
8941;BME280;4505;43.406;23.226;2022-11-11T12:02:33;101260.22;;;15.45;100.00
8941;BME280;4505;43.406;23.226;2022-11-11T12:05:10;101262.25;;;15.61;100.00
8941;BME280;4505;43.406;23.226;2022-11-11T12:07:55;101262.44;;;15.30;100.00
8941;BME280;4505;43.406;23.226;2022-11-11T12:10:27;101254.78;;;15.34;100.00
8941;BME280;4505;43.406;23.226;2022-11-11T12:12:58;101254.94;;;15.39;100.00
8941;BME280;4505;43.406;23.226;2022-11-11T12:15:32;101257.91;;;15.31;100.00
8941;BME280;4505;43.406;23.226;2022-11-11T12:18:07;101255.16;;;15.37;100.00
8941;BME280;4505;43.406;23.226;2022-11-11T12:20:38;101253.75;;;15.35;100.00
8941;BME280;4505;43.406;23.226;2022-11-11T12:23:11;101257.69;;;15.50;100.00
8941;BME280;4505;43.406;23.226;2022-11-11T12:25:47;101247.25;;;15.72;100.00
8941;BME280;4505;43.406;23.226;2022-11-11T12:28:25;101249.59;;;15.80;100.00
8941;BME280;4505;43.406;23.226;2022-11-11T12:30:58;101248.00;;;15.91;100.00
8941;BME280;4505;43.406;23.226;2022-11-11T12:33:41;101251.75;;;15.90;100.00
8941;BME280;4505;43.406;23.226;2022-11-11T12:36:14;101248.81;;;16.03;100.00
8941;BME280;4505;43.406;23.226;2022-11-11T12:38:46;101247.25;;;15.72;100.00
8941;BME280;4505;43.406;23.226;2022-11-11T12:41:17;101249.53;;;15.98;100.00
8941;BME280;4505;43.406;23.226;2022-11-11T12:43:46;101252.00;;;15.58;100.00
8941;BME280;4505;43.406;23.226;2022-11-11T12:46:19;101241.56;;;15.68;100.00
8941;BME280;4505;43.406;23.226;2022-11-11T12:48:52;101238.78;;;15.75;100.00
8941;BME280;4505;43.406;23.226;2022-11-11T12:51:24;101237.88;;;15.51;100.00
8941;BME280;4505;43.406;23.226;2022-11-11T12:53:57;101245.22;;;15.44;100.00
8941;BME280;4505;43.406;23.226;2022-11-11T12:56:33;101240.00;;;15.61;100.00
8941;BME280;4505;43.406;23.226;2022-11-11T12:59:04;101243.47;;;15.50;100.00
8941;BME280;4505;43.406;23.226;2022-11-11T13:01:41;101234.19;;;15.52;100.00
8941;BME280;4505;43.406;23.226;2022-11-11T13:04:25;101240.78;;;15.50;100.00
8941;BME280;4505;43.406;23.226;2022-11-11T13:06:56;101240.47;;;15.58;100.00
8941;BME280;4505;43.406;23.226;2022-11-11T13:09:27;101229.00;;;15.39;100.00
8941;BME280;4505;43.406;23.226;2022-11-11T13:12:00;101236.66;;;15.36;100.00
8941;BME280;4505;43.406;23.226;2022-11-11T13:14:34;101238.13;;;15.32;100.00
8941;BME280;4505;43.406;23.226;2022-11-11T13:17:05;101242.88;;;15.00;100.00